| time (UTC) | temp F | wind direction | speed MPH | gust MPH | rain 1hr in | rain 24hr in | rain mn in | humidity % | barometer mb |
| 20260505173048 | 66 | 0 | 4.0 | 10.0 | 0.00 | 0.13 | 0.13 | 59 | 1012.4 |
| 20260505171546 | 65 | 0 | 1.0 | 10.0 | 0.00 | 0.13 | 0.13 | 59 | 1012.6 |
| 20260505170046 | 64 | 0 | 1.0 | 7.0 | 0.00 | 0.13 | 0.13 | 60 | 1012.6 |
| 20260505164546 | 64 | 138 | 5.0 | 9.0 | 0.00 | 0.13 | 0.13 | 63 | 1012.6 |
| 20260505163046 | 63 | 115 | 1.0 | 9.0 | 0.00 | 0.13 | 0.13 | 65 | 1012.7 |
| 20260505161545 | 63 | 0 | 1.0 | 6.0 | 0.00 | 0.13 | 0.13 | 62 | 1012.7 |
| 20260505153051 | 61 | 130 | 4.0 | 7.0 | 0.00 | 0.13 | 0.13 | 68 | 1012.8 |
| 20260505151546 | 59 | 119 | 1.0 | 7.0 | 0.00 | 0.13 | 0.13 | 72 | 1012.8 |
| 20260505124559 | 57 | 84 | 7.0 | 11.0 | 0.02 | 0.10 | 0.10 | 79 | 1011.5 |
| 20260505123045 | 57 | 80 | 5.0 | 9.0 | 0.02 | 0.09 | 0.09 | 77 | 1011.7 |
| 20260505121549 | 57 | 76 | 5.0 | 11.0 | 0.01 | 0.08 | 0.08 | 77 | 1011.5 |
| 20260505120053 | 58 | 117 | 5.0 | 11.0 | 0.01 | 0.08 | 0.08 | 79 | 1011.6 |
| 20260505114548 | 58 | 128 | 9.0 | 12.0 | 0.01 | 0.08 | 0.08 | 80 | 1011.7 |
| 20260505113045 | 58 | 104 | 3.0 | 7.0 | 0.01 | 0.07 | 0.07 | 80 | 1011.9 |
| 20260505111547 | 58 | 81 | 2.0 | 5.0 | 0.03 | 0.07 | 0.07 | 80 | 1012.2 |
| 20260505101547 | 58 | 0 | 0.0 | 2.0 | 0.03 | 0.04 | 0.04 | 82 | 1013.4 |
| 20260505100047 | 58 | 9 | 1.0 | 3.0 | 0.03 | 0.03 | 0.03 | 80 | 1013.4 |
| 20260505094544 | 58 | 0 | 0.0 | 3.0 | 0.02 | 0.02 | 0.02 | 79 | 1013.6 |
| 20260505093049 | 58 | 9 | 2.0 | 8.0 | 0.01 | 0.01 | 0.01 | 79 | 1013.5 |
| 20260505091550 | 59 | 338 | 3.0 | 11.0 | 0.01 | 0.01 | 0.01 | 79 | 1013.3 |
| 20260505090050 | 59 | 328 | 5.0 | 12.0 | 0.00 | 0.00 | 0.00 | 78 | 1013.5 |
| 20260505084549 | 60 | 327 | 8.0 | 13.0 | 0.00 | 0.00 | 0.00 | 75 | 1013.9 |
| 20260505083042 | 60 | 315 | 7.0 | 13.0 | 0.00 | 0.00 | 0.00 | 74 | 1013.9 |
| 20260505081553 | 60 | 340 | 3.0 | 8.0 | 0.00 | 0.00 | 0.00 | 76 | 1014.0 |
| 20260505080054 | 61 | 306 | 5.0 | 12.0 | 0.00 | 0.00 | 0.00 | 73 | 1013.9 |
| 20260505074548 | 61 | 323 | 7.0 | 13.0 | 0.00 | 0.00 | 0.00 | 70 | 1013.7 |
| 20260505073053 | 61 | 302 | 10.0 | 15.0 | 0.00 | 0.00 | 0.00 | 71 | 1013.7 |
| 20260505071546 | 61 | 315 | 9.0 | 13.0 | 0.00 | 0.00 | 0.00 | 71 | 1013.7 |
| 20260505070054 | 61 | 313 | 9.0 | 15.0 | 0.00 | 0.00 | 0.00 | 70 | 1014.0 |
| 20260505064549 | 62 | 296 | 8.0 | 15.0 | 0.00 | 0.00 | 0.00 | 67 | 1013.6 |
| 20260505063110 | 63 | 300 | 7.0 | 14.0 | 0.00 | 0.00 | 0.00 | 64 | 1013.4 |
| 20260505061546 | 63 | 316 | 7.0 | 14.0 | 0.00 | 0.00 | 0.00 | 65 | 1013.0 |
| 20260505060054 | 63 | 309 | 7.0 | 14.0 | 0.00 | 0.00 | 0.00 | 66 | 1013.4 |
| 20260505054602 | 63 | 309 | 5.0 | 13.0 | 0.00 | 0.00 | 0.00 | 63 | 1013.3 |
| 20260505053058 | 64 | 326 | 5.0 | 14.0 | 0.00 | 0.00 | 0.00 | 62 | 1013.0 |
| 20260505051549 | 64 | 11 | 7.0 | 15.0 | 0.00 | 0.00 | 0.00 | 63 | 1013.0 |
| 20260505041554 | 62 | 337 | 4.0 | 8.0 | 0.00 | 0.00 | 0.00 | 65 | 1014.2 |
| 20260505040054 | 63 | 29 | 2.0 | 13.0 | 0.00 | 0.00 | 0.00 | 64 | 1014.1 |
| 20260505034545 | 64 | 311 | 6.0 | 17.0 | 0.00 | 0.00 | 0.00 | 58 | 1014.2 |
| 20260505033046 | 66 | 304 | 9.0 | 16.0 | 0.00 | 0.00 | 0.00 | 56 | 1013.7 |
| 20260505031554 | 66 | 312 | 8.0 | 15.0 | 0.00 | 0.00 | 0.00 | 52 | 1013.4 |
| 20260505030043 | 65 | 360 | 6.0 | 18.0 | 0.00 | 0.00 | 0.00 | 53 | 1013.2 |
| 20260505024555 | 65 | 336 | 13.0 | 19.0 | 0.00 | 0.00 | 0.00 | 50 | 1013.3 |
| 20260505023043 | 65 | 323 | 12.0 | 20.0 | 0.00 | 0.00 | 0.00 | 51 | 1013.1 |
| 20260505021547 | 67 | 350 | 12.0 | 23.0 | 0.00 | 0.00 | 0.00 | 44 | 1012.7 |
| 20260505020045 | 67 | 352 | 9.0 | 17.0 | 0.00 | 0.00 | 0.00 | 42 | 1012.5 |
| 20260505014602 | 65 | 22 | 8.0 | 18.0 | 0.00 | 0.00 | 0.00 | 46 | 1012.5 |
| 20260505013043 | 66 | 19 | 12.0 | 19.0 | 0.00 | 0.00 | 0.00 | 47 | 1012.8 |
| 20260505011556 | 69 | 320 | 8.0 | 20.0 | 0.00 | 0.00 | 0.00 | 38 | 1013.3 |
| 20260505010049 | 72 | 309 | 15.0 | 25.0 | 0.00 | 0.00 | 0.00 | 29 | 1013.2 |
| 20260505004548 | 73 | 267 | 10.0 | 22.0 | 0.00 | 0.00 | 0.00 | 26 | 1012.6 |
| 20260505003048 | 74 | 300 | 14.0 | 24.0 | 0.00 | 0.00 | 0.00 | 25 | 1012.4 |
| 20260505001545 | 75 | 304 | 15.0 | 27.0 | 0.00 | 0.00 | 0.00 | 25 | 1012.5 |
| 20260505000058 | 75 | 315 | 19.0 | 32.0 | 0.00 | 0.00 | 0.00 | 24 | 1012.3 |
| 20260504234553 | 76 | 292 | 19.0 | 31.0 | 0.00 | 0.00 | 0.00 | 25 | 1011.8 |
| 20260504233105 | 77 | 297 | 15.0 | 30.0 | 0.00 | 0.00 | 0.00 | 23 | 1011.5 |
| 20260504231550 | 78 | 292 | 16.0 | 33.0 | 0.00 | 0.00 | 0.00 | 21 | 1011.4 |
| 20260504230053 | 78 | 264 | 21.0 | 32.0 | 0.00 | 0.00 | 0.00 | 20 | 1011.4 |
| 20260504224556 | 79 | 302 | 19.0 | 31.0 | 0.00 | 0.00 | 0.00 | 20 | 1011.4 |
| 20260504223110 | 79 | 273 | 20.0 | 33.0 | 0.00 | 0.00 | 0.00 | 20 | 1011.2 |
| 20260504221547 | 81 | 297 | 14.0 | 24.0 | 0.00 | 0.00 | 0.00 | 17 | 1011.1 |
| 20260504220050 | 81 | 296 | 18.0 | 30.0 | 0.00 | 0.00 | 0.00 | 17 | 1011.0 |
| 20260504214546 | 81 | 316 | 14.0 | 25.0 | 0.00 | 0.00 | 0.00 | 17 | 1011.1 |
| 20260504213053 | 83 | 296 | 14.0 | 23.0 | 0.00 | 0.00 | 0.00 | 18 | 1011.0 |
| 20260504211549 | 83 | 310 | 10.0 | 20.0 | 0.00 | 0.00 | 0.00 | 16 | 1010.7 |
| 20260504210051 | 83 | 277 | 14.0 | 25.0 | 0.00 | 0.00 | 0.00 | 13 | 1010.8 |
| 20260504204550 | 84 | 311 | 13.0 | 19.0 | 0.00 | 0.00 | 0.00 | 12 | 1010.9 |
| 20260504203104 | 83 | 14 | 8.0 | 23.0 | 0.00 | 0.00 | 0.00 | 15 | 1011.1 |
| 20260504201544 | 84 | 279 | 10.0 | 19.0 | 0.00 | 0.00 | 0.00 | 13 | 1011.1 |
| 20260504200051 | 83 | 242 | 6.0 | 11.0 | 0.00 | 0.00 | 0.00 | 14 | 1011.2 |
| 20260504194542 | 83 | 259 | 3.0 | 14.0 | 0.00 | 0.00 | 0.00 | 15 | 1011.3 |
| 20260504193048 | 83 | 251 | 6.0 | 19.0 | 0.00 | 0.00 | 0.00 | 14 | 1011.6 |
| 20260504191556 | 82 | 318 | 5.0 | 9.0 | 0.00 | 0.00 | 0.00 | 16 | 1011.8 |
| 20260504190049 | 82 | 234 | 4.0 | 9.0 | 0.00 | 0.00 | 0.00 | 16 | 1012.1 |
| 20260504184543 | 81 | 32 | 3.0 | 12.0 | 0.00 | 0.00 | 0.00 | 17 | 1012.4 |
| 20260504183049 | 80 | 333 | 4.0 | 9.0 | 0.00 | 0.00 | 0.00 | 18 | 1012.8 |
| 20260504181547 | 79 | 310 | 4.0 | 8.0 | 0.00 | 0.00 | 0.00 | 19 | 1013.0 |
| 20260504180047 | 79 | 347 | 2.0 | 9.0 | 0.00 | 0.00 | 0.00 | 19 | 1013.2 |
| 20260504174547 | 79 | 290 | 1.0 | 12.0 | 0.00 | 0.00 | 0.00 | 19 | 1013.1 |